createdAt,value
2022-10-06T00:00:49.896Z,1260.25
2022-10-06T00:03:17.596Z,1257.70
2022-10-06T00:05:44.970Z,1258.70
2022-10-06T00:08:12.252Z,1257.72
2022-10-06T00:10:40.284Z,1257.78
2022-10-06T00:13:07.852Z,1260.18
2022-10-06T00:15:35.063Z,1258.05
2022-10-06T00:18:02.625Z,1254.32
2022-10-06T00:20:29.821Z,1253.80
2022-10-06T00:22:57.029Z,1253.87
2022-10-06T00:25:25.220Z,1259.90
2022-10-06T00:27:53.227Z,1256.70
2022-10-06T00:30:24.967Z,1256.88
2022-10-06T00:32:53.546Z,1256.90
2022-10-06T00:35:21.206Z,1254.45
2022-10-06T00:37:48.345Z,1258.82
2022-10-06T00:40:15.890Z,1258.38
2022-10-06T00:42:53.321Z,1254.70
2022-10-06T00:45:32.547Z,1254.95
2022-10-06T00:48:03.194Z,1257.68
2022-10-06T00:50:30.910Z,1255.93
2022-10-06T00:52:58.718Z,1253.95
2022-10-06T00:55:25.918Z,1256.32
2022-10-06T00:57:53.426Z,1257.55
2022-10-06T01:00:21.289Z,1257.85
2022-10-06T01:02:57.291Z,1255.93
2022-10-06T01:05:34.972Z,1262.30
2022-10-06T01:08:02.525Z,1253.57
2022-10-06T01:10:29.719Z,1267.87
2022-10-06T01:12:57.115Z,1262.20
2022-10-06T01:15:25.280Z,1262.93
2022-10-06T01:18:01.067Z,1259.07
2022-10-06T01:20:29.881Z,1258.63
2022-10-06T01:23:01.170Z,1261.80
2022-10-06T01:25:29.057Z,1259.85
2022-10-06T01:27:56.519Z,1258.13
2022-10-06T01:30:28.169Z,1257.77
2022-10-06T01:32:56.482Z,1257.32
2022-10-06T01:35:23.888Z,1256.85
2022-10-06T01:37:51.256Z,1257.63
2022-10-06T01:40:19.102Z,1256.57
2022-10-06T01:42:46.712Z,1255.95
2022-10-06T01:45:13.993Z,1258.13
2022-10-06T01:47:41.166Z,1255.70
2022-10-06T01:50:08.628Z,1256.70
2022-10-06T01:52:36.593Z,1254.30
2022-10-06T01:55:04.491Z,1255.65
2022-10-06T01:57:32.349Z,1253.33
2022-10-06T01:59:59.535Z,1252.33
2022-10-06T02:02:26.712Z,1257.00
2022-10-06T02:04:53.846Z,1259.55
2022-10-06T02:07:21.191Z,1256.80
2022-10-06T02:09:48.310Z,1256.22
2022-10-06T02:12:17.043Z,1258.63
2022-10-06T02:14:44.187Z,1259.55
2022-10-06T02:17:11.399Z,1259.82
2022-10-06T02:19:38.500Z,1254.53
2022-10-06T02:22:05.784Z,1261.50
2022-10-06T02:24:32.906Z,1256.90
2022-10-06T02:27:00.525Z,1259.30
2022-10-06T02:29:28.086Z,1254.30
2022-10-06T02:31:56.494Z,1258.53
2022-10-06T02:34:24.531Z,1260.63
2022-10-06T02:36:53.407Z,1264.07
2022-10-06T02:39:20.768Z,1261.18
2022-10-06T02:41:47.943Z,1265.38
2022-10-06T02:44:15.283Z,1256.13
2022-10-06T02:46:44.577Z,1255.05
2022-10-06T02:49:12.271Z,1261.97
2022-10-06T02:51:39.439Z,1260.47
2022-10-06T02:54:06.783Z,1257.35
2022-10-06T02:56:35.252Z,1257.07
2022-10-06T02:59:02.480Z,1259.57
2022-10-06T03:01:33.186Z,1257.57
2022-10-06T03:04:08.194Z,1261.10
2022-10-06T03:06:35.305Z,1259.47
2022-10-06T03:09:09.990Z,1258.63
2022-10-06T03:11:43.276Z,1255.00
2022-10-06T03:14:17.875Z,1255.15
2022-10-06T03:16:50.193Z,1256.07
2022-10-06T03:19:22.000Z,1256.75
2022-10-06T03:21:49.555Z,1256.55
2022-10-06T03:24:17.355Z,1257.75
2022-10-06T03:26:48.638Z,1254.07
2022-10-06T03:29:17.714Z,1251.10
2022-10-06T03:31:50.192Z,1252.50
2022-10-06T03:34:17.494Z,1253.97
2022-10-06T03:36:45.299Z,1255.97
2022-10-06T03:39:13.067Z,1256.38
2022-10-06T03:41:41.025Z,1252.43
2022-10-06T03:44:09.901Z,1255.43
2022-10-06T03:46:39.882Z,1255.47
2022-10-06T03:49:08.243Z,1251.95
2022-10-06T03:51:36.786Z,1255.20
2022-10-06T03:54:04.575Z,1250.10
2022-10-06T03:56:35.520Z,1248.27
2022-10-06T03:59:06.138Z,1252.93
2022-10-06T04:01:35.664Z,1249.70
2022-10-06T04:04:05.714Z,1259.25
2022-10-06T04:06:35.651Z,1257.85
2022-10-06T04:09:04.707Z,1256.43
2022-10-06T04:11:33.895Z,1258.75
2022-10-06T04:14:03.452Z,1256.50
2022-10-06T04:16:32.811Z,1262.68
2022-10-06T04:19:06.060Z,1258.28
2022-10-06T04:21:34.297Z,1256.10
2022-10-06T04:24:01.696Z,1260.68
2022-10-06T04:26:35.929Z,1257.20
2022-10-06T04:29:03.206Z,1257.25
2022-10-06T04:31:34.374Z,1259.47
2022-10-06T04:34:02.209Z,1263.43
2022-10-06T04:36:32.630Z,1251.93
2022-10-06T04:39:03.128Z,1258.03
2022-10-06T04:41:35.093Z,1263.45
2022-10-06T04:44:03.182Z,1255.40
2022-10-06T04:46:47.493Z,1259.32
2022-10-06T04:49:20.020Z,1254.72
2022-10-06T04:51:49.691Z,1259.22
2022-10-06T04:54:18.931Z,1254.97
2022-10-06T04:56:47.463Z,1255.03
2022-10-06T04:59:16.362Z,1260.73
2022-10-06T05:01:45.306Z,1254.85
2022-10-06T05:04:14.243Z,1257.55
2022-10-06T05:06:42.601Z,1256.65
2022-10-06T05:09:12.504Z,1264.85
2022-10-06T05:11:45.270Z,1260.35
2022-10-06T05:14:15.057Z,1253.68
2022-10-06T05:16:45.361Z,1268.68
2022-10-06T05:19:13.731Z,1267.70
2022-10-06T05:21:41.216Z,1254.25
2022-10-06T05:24:11.190Z,1253.40
2022-10-06T05:26:39.018Z,1257.68
2022-10-06T05:29:10.001Z,1256.82
2022-10-06T05:31:40.199Z,1257.90
2022-10-06T05:34:07.810Z,1258.00
2022-10-06T05:36:35.750Z,1256.07
2022-10-06T05:39:03.954Z,1259.82
2022-10-06T05:41:54.004Z,1258.07
2022-10-06T05:44:21.255Z,1258.03
2022-10-06T05:46:48.718Z,1259.60
2022-10-06T05:49:16.149Z,1261.97
2022-10-06T05:51:53.032Z,1265.72
2022-10-06T05:54:26.704Z,1261.00
2022-10-06T05:56:53.983Z,1260.22
2022-10-06T05:59:21.942Z,1255.13
2022-10-06T06:01:49.446Z,1254.53
2022-10-06T06:04:27.637Z,1255.18
2022-10-06T06:06:57.266Z,1252.55
2022-10-06T06:09:26.290Z,1247.72
2022-10-06T06:11:55.636Z,1247.43
2022-10-06T06:15:04.937Z,1252.05
2022-10-06T06:17:38.557Z,1255.25
2022-10-06T06:20:06.365Z,1255.47
2022-10-06T06:22:34.114Z,1256.40
2022-10-06T06:25:01.579Z,1255.10
2022-10-06T06:27:30.325Z,1257.55
2022-10-06T06:29:58.201Z,1254.63
2022-10-06T06:32:26.748Z,1259.13
2022-10-06T06:34:53.911Z,1260.38
2022-10-06T06:37:21.418Z,1264.03
2022-10-06T06:39:49.390Z,1256.05
2022-10-06T06:42:17.321Z,1248.18
2022-10-06T06:44:47.453Z,1252.20
2022-10-06T06:47:35.018Z,1251.33
2022-10-06T06:50:10.464Z,1254.17
2022-10-06T06:52:39.681Z,1254.03
2022-10-06T06:55:09.969Z,1253.85
2022-10-06T06:57:37.286Z,1255.80
2022-10-06T07:00:08.340Z,1248.50
2022-10-06T07:02:37.291Z,1250.75
2022-10-06T07:05:05.031Z,1245.82
2022-10-06T07:07:32.419Z,1247.68
2022-10-06T07:10:00.158Z,1255.18
2022-10-06T07:12:27.429Z,1249.50
2022-10-06T07:15:17.270Z,1248.82
2022-10-06T07:18:09.723Z,1252.80
2022-10-06T07:20:55.966Z,1251.23
2022-10-06T07:23:42.403Z,1251.13
2022-10-06T07:26:16.791Z,1253.05
2022-10-06T07:28:44.795Z,1251.85
2022-10-06T07:31:14.327Z,1251.13
2022-10-06T07:33:41.749Z,1252.63
2022-10-06T07:36:11.202Z,1252.60
2022-10-06T07:38:41.423Z,1251.40
2022-10-06T07:41:24.123Z,1252.32
2022-10-06T07:43:55.391Z,1253.95
2022-10-06T07:46:24.244Z,1255.83
2022-10-06T07:49:02.129Z,1252.13
2022-10-06T07:51:30.586Z,1251.60
2022-10-06T07:53:58.901Z,1255.97
2022-10-06T07:56:33.602Z,1256.70
2022-10-06T07:59:00.878Z,1255.22
2022-10-06T08:01:29.694Z,1258.07
2022-10-06T08:03:57.554Z,1265.82
2022-10-06T08:06:25.063Z,1260.88
2022-10-06T08:08:56.406Z,1261.32
2022-10-06T08:11:23.750Z,1262.50
2022-10-06T08:13:51.908Z,1260.50
2022-10-06T08:16:21.605Z,1264.47
2022-10-06T08:18:49.942Z,1264.78
2022-10-06T08:21:19.584Z,1264.00
2022-10-06T08:23:47.832Z,1266.45
2022-10-06T08:26:15.974Z,1261.40
2022-10-06T08:28:46.927Z,1257.15
2022-10-06T08:31:15.758Z,1256.80
2022-10-06T08:33:44.221Z,1256.25
2022-10-06T08:36:16.759Z,1262.93
2022-10-06T08:38:46.279Z,1257.53
2022-10-06T08:41:19.807Z,1257.80
2022-10-06T08:43:49.602Z,1257.38
2022-10-06T08:46:19.868Z,1261.45
2022-10-06T08:48:49.663Z,1257.95
2022-10-06T08:51:33.548Z,1276.72
2022-10-06T08:54:15.398Z,1257.65
2022-10-06T08:56:57.982Z,1256.00
2022-10-06T08:59:25.461Z,1258.00
2022-10-06T09:01:54.597Z,1255.63
2022-10-06T09:04:23.051Z,1258.60
2022-10-06T09:07:11.787Z,1263.93
2022-10-06T09:09:54.681Z,1257.93
2022-10-06T09:12:34.376Z,1256.85
2022-10-06T09:15:40.993Z,1255.23
2022-10-06T09:18:49.527Z,1263.65
2022-10-06T09:21:30.139Z,1257.43
2022-10-06T09:24:03.700Z,1260.80
2022-10-06T09:26:32.634Z,1260.70
2022-10-06T09:29:00.058Z,1265.65
2022-10-06T09:31:42.278Z,1255.43
2022-10-06T09:34:10.050Z,1259.03
2022-10-06T09:37:01.642Z,1256.20
2022-10-06T09:39:37.104Z,1257.22
2022-10-06T09:42:35.265Z,1260.13
2022-10-06T09:45:08.024Z,1265.30
2022-10-06T09:47:35.326Z,1259.03
2022-10-06T09:50:14.141Z,1262.57
2022-10-06T09:53:05.821Z,1259.45
2022-10-06T09:55:41.023Z,1262.07
2022-10-06T09:58:22.116Z,1260.47
2022-10-06T10:01:02.823Z,1261.43
2022-10-06T10:04:08.924Z,1259.32
2022-10-06T10:06:40.390Z,1262.63
2022-10-06T10:09:27.299Z,1267.05
2022-10-06T10:12:31.185Z,1262.43
2022-10-06T10:15:01.851Z,1259.03
2022-10-06T10:17:38.206Z,1261.85
2022-10-06T10:20:22.267Z,1258.80
2022-10-06T10:22:49.594Z,1258.47
2022-10-06T10:25:35.362Z,1263.05
2022-10-06T10:28:15.649Z,1261.95
2022-10-06T10:31:03.869Z,1262.47
2022-10-06T10:33:46.154Z,1261.95
2022-10-06T10:36:22.902Z,1266.47
2022-10-06T10:38:50.223Z,1263.20
2022-10-06T10:41:22.609Z,1266.97
2022-10-06T10:44:08.071Z,1265.53
2022-10-06T10:46:40.305Z,1265.88
2022-10-06T10:49:07.546Z,1267.63
2022-10-06T10:51:37.353Z,1265.43
2022-10-06T10:54:11.263Z,1263.32
2022-10-06T10:56:38.518Z,1265.72
2022-10-06T10:59:14.723Z,1269.25
2022-10-06T11:01:45.884Z,1266.82
2022-10-06T11:04:13.887Z,1265.30
2022-10-06T11:06:54.320Z,1264.80
2022-10-06T11:09:40.180Z,1263.28
2022-10-06T11:12:14.838Z,1269.00
2022-10-06T11:15:01.544Z,1267.38
2022-10-06T11:17:46.826Z,1265.57
2022-10-06T11:20:24.109Z,1267.30
2022-10-06T11:23:12.433Z,1269.85
2022-10-06T11:25:48.312Z,1268.00
2022-10-06T11:28:19.867Z,1265.10
2022-10-06T11:31:10.274Z,1253.55
2022-10-06T11:33:54.235Z,1255.82
2022-10-06T11:36:44.757Z,1256.47
2022-10-06T11:39:40.877Z,1257.18
2022-10-06T11:42:20.720Z,1262.53
2022-10-06T11:44:56.453Z,1252.90
2022-10-06T11:47:35.038Z,1259.70
2022-10-06T11:50:03.526Z,1255.97
2022-10-06T11:52:30.618Z,1256.90
2022-10-06T11:55:08.179Z,1257.82
2022-10-06T11:57:35.601Z,1257.38
2022-10-06T12:00:02.750Z,1255.10
2022-10-06T12:02:34.254Z,1256.75
2022-10-06T12:05:28.898Z,1252.45
2022-10-06T12:07:57.747Z,1256.35
2022-10-06T12:10:28.025Z,1256.93
2022-10-06T12:13:31.725Z,1255.35
2022-10-06T12:19:19.368Z,1255.97
2022-10-06T12:21:46.567Z,1259.63
2022-10-06T12:24:22.922Z,1257.70
2022-10-06T12:26:50.142Z,1254.40
2022-10-06T12:29:54.446Z,1254.82
2022-10-06T12:32:33.636Z,1252.80
2022-10-06T12:35:16.178Z,1259.38
2022-10-06T12:37:50.143Z,1258.03
2022-10-06T12:40:42.700Z,1260.05
2022-10-06T12:43:18.602Z,1256.00
2022-10-06T12:46:07.389Z,1258.18
2022-10-06T12:48:37.562Z,1259.30
2022-10-06T12:51:08.222Z,1259.38
2022-10-06T12:53:40.689Z,1260.20
2022-10-06T12:56:16.761Z,1256.25
2022-10-06T12:58:43.939Z,1262.50
2022-10-06T13:01:12.394Z,1261.30
2022-10-06T13:03:39.698Z,1262.40
2022-10-06T13:06:08.229Z,1257.22
2022-10-06T13:08:39.983Z,1254.87
2022-10-06T13:11:28.362Z,1257.70
2022-10-06T13:13:58.602Z,1256.97
2022-10-06T13:16:39.295Z,1260.30
2022-10-06T13:19:14.292Z,1256.05
2022-10-06T13:21:41.523Z,1259.43
2022-10-06T13:24:16.637Z,1260.47
2022-10-06T13:26:44.543Z,1262.57
2022-10-06T13:29:21.172Z,1260.18
2022-10-06T13:31:52.627Z,1259.22
2022-10-06T13:34:43.000Z,1261.30
2022-10-06T13:37:15.292Z,1260.47
2022-10-06T13:39:42.601Z,1258.72
2022-10-06T13:42:16.190Z,1260.50
2022-10-06T13:44:47.819Z,1261.72
2022-10-06T13:47:19.257Z,1261.97
2022-10-06T13:49:52.283Z,1263.68
2022-10-06T13:52:25.980Z,1262.40
2022-10-06T13:54:54.574Z,1257.03
2022-10-06T13:57:36.778Z,1262.47
2022-10-06T14:00:30.361Z,1259.47
2022-10-06T14:03:07.346Z,1266.27
2022-10-06T14:05:38.866Z,1266.30
2022-10-06T14:08:11.868Z,1265.70
2022-10-06T14:10:43.012Z,1269.18
2022-10-06T14:13:15.083Z,1269.65
2022-10-06T14:15:49.927Z,1269.13
2022-10-06T14:18:42.746Z,1268.93
2022-10-06T14:21:35.047Z,1270.05
2022-10-06T14:24:06.204Z,1267.18
2022-10-06T14:26:40.515Z,1268.13
2022-10-06T14:29:07.885Z,1266.38
2022-10-06T14:31:35.034Z,1267.53
2022-10-06T14:34:02.883Z,1268.65
2022-10-06T14:36:35.979Z,1272.68
2022-10-06T14:39:04.774Z,1268.33
2022-10-06T14:41:32.485Z,1271.07
2022-10-06T14:44:01.957Z,1269.60
2022-10-06T14:46:29.818Z,1270.40
2022-10-06T14:48:57.078Z,1272.15
2022-10-06T14:51:25.678Z,1273.20
2022-10-06T14:53:54.356Z,1275.77
2022-10-06T14:56:23.173Z,1274.28
2022-10-06T14:58:50.799Z,1272.13
2022-10-06T15:01:19.771Z,1273.13
2022-10-06T15:03:54.109Z,1276.03
2022-10-06T15:06:40.290Z,1272.70
2022-10-06T15:09:07.439Z,1273.57
2022-10-06T15:11:34.869Z,1277.03
2022-10-06T15:14:02.563Z,1275.50
2022-10-06T15:16:30.712Z,1276.65
2022-10-06T15:19:04.481Z,1276.10
2022-10-06T15:21:33.423Z,1277.57
2022-10-06T15:24:01.692Z,1277.90
2022-10-06T15:26:47.706Z,1279.47
2022-10-06T15:29:15.164Z,1277.05
2022-10-06T15:31:46.177Z,1280.78
2022-10-06T15:34:14.423Z,1278.83
2022-10-06T15:36:42.879Z,1279.53
2022-10-06T15:39:10.462Z,1279.93
2022-10-06T15:41:38.785Z,1284.38
2022-10-06T15:44:06.257Z,1285.45
2022-10-06T15:46:37.085Z,1281.90
2022-10-06T15:49:09.331Z,1283.65
2022-10-06T15:51:42.691Z,1282.88
2022-10-06T15:54:11.056Z,1282.13
2022-10-06T15:56:38.562Z,1286.28
2022-10-06T15:59:06.042Z,1282.87
2022-10-06T16:01:43.707Z,1279.80
2022-10-06T16:04:21.202Z,1280.22
2022-10-06T16:06:55.405Z,1279.30
2022-10-06T16:09:24.375Z,1277.47
2022-10-06T16:11:52.058Z,1280.03
2022-10-06T16:14:19.279Z,1278.37
2022-10-06T16:16:47.558Z,1277.70
2022-10-06T16:19:15.698Z,1281.07
2022-10-06T16:21:44.274Z,1277.47
2022-10-06T16:24:11.424Z,1276.93
2022-10-06T16:26:38.155Z,1278.60
2022-10-06T16:29:05.131Z,1274.28
2022-10-06T16:31:32.208Z,1271.15
2022-10-06T16:33:59.124Z,1275.53
2022-10-06T16:36:26.239Z,1276.38
2022-10-06T16:38:54.263Z,1277.90
2022-10-06T16:41:22.678Z,1281.55
2022-10-06T16:43:51.100Z,1277.30
2022-10-06T16:46:19.605Z,1273.53
2022-10-06T16:48:48.225Z,1272.97
2022-10-06T16:51:19.114Z,1276.97
2022-10-06T16:53:47.178Z,1277.60
2022-10-06T16:56:17.329Z,1277.68
2022-10-06T16:58:45.953Z,1275.18
2022-10-06T17:01:14.366Z,1277.82
2022-10-06T17:03:42.039Z,1275.85
2022-10-06T17:06:12.366Z,1272.25
2022-10-06T17:08:40.266Z,1273.07
2022-10-06T17:11:20.996Z,1275.82
2022-10-06T17:13:49.198Z,1274.82
2022-10-06T17:16:18.384Z,1270.60
2022-10-06T17:18:49.334Z,1275.10
2022-10-06T17:21:43.228Z,1274.20
2022-10-06T17:24:04.877Z,1271.68
2022-10-06T17:26:35.450Z,1268.95
2022-10-06T17:29:05.923Z,1267.30
2022-10-06T17:31:43.351Z,1268.30
2022-10-06T17:34:16.953Z,1267.90
2022-10-06T17:36:48.239Z,1265.95
2022-10-06T17:39:17.218Z,1262.50
2022-10-06T17:41:45.548Z,1268.35
2022-10-06T17:44:18.687Z,1263.00
2022-10-06T17:46:45.721Z,1265.05
2022-10-06T17:49:15.916Z,1266.63
2022-10-06T17:51:47.896Z,1263.22
2022-10-06T17:54:16.932Z,1263.38
2022-10-06T17:56:45.975Z,1265.80
2022-10-06T17:59:22.029Z,1264.35
2022-10-06T18:01:51.137Z,1262.93
2022-10-06T18:04:18.843Z,1260.00
2022-10-06T18:06:46.546Z,1265.18
2022-10-06T18:09:14.458Z,1262.55
2022-10-06T18:11:43.908Z,1264.15
2022-10-06T18:14:13.907Z,1264.90
2022-10-06T18:16:45.099Z,1258.63
2022-10-06T18:19:17.659Z,1261.75
2022-10-06T18:21:45.706Z,1258.45
2022-10-06T18:24:20.993Z,1261.60
2022-10-06T18:26:53.050Z,1259.50
2022-10-06T18:29:22.604Z,1259.95
2022-10-06T18:31:51.129Z,1258.68
2022-10-06T18:37:05.483Z,1262.35
2022-10-06T18:39:33.419Z,1257.47
2022-10-06T18:42:03.587Z,1256.90
2022-10-06T18:44:48.796Z,1261.25
2022-10-06T18:47:34.119Z,1258.40
2022-10-06T18:50:01.372Z,1255.25
2022-10-06T18:52:28.106Z,1252.18
2022-10-06T18:54:54.782Z,1256.88
2022-10-06T18:57:27.249Z,1256.82
2022-10-06T18:59:54.958Z,1255.32
2022-10-06T19:02:21.810Z,1258.53
2022-10-06T19:04:49.098Z,1255.50
2022-10-06T19:07:15.871Z,1257.28
2022-10-06T19:09:46.386Z,1255.47
2022-10-06T19:12:13.704Z,1254.78
2022-10-06T19:14:46.935Z,1255.07
2022-10-06T19:17:14.828Z,1254.63
2022-10-06T19:19:50.859Z,1259.07
2022-10-06T19:22:19.586Z,1258.95
2022-10-06T19:24:48.393Z,1260.00
2022-10-06T19:27:20.422Z,1259.82
2022-10-06T19:29:54.128Z,1256.97
2022-10-06T19:32:27.137Z,1259.10
2022-10-06T19:34:57.710Z,1257.80
2022-10-06T19:37:26.845Z,1260.20
2022-10-06T19:39:54.222Z,1261.95
2022-10-06T19:42:39.803Z,1262.68
2022-10-06T19:45:08.477Z,1262.22
2022-10-06T19:47:35.786Z,1256.78
2022-10-06T19:50:08.810Z,1259.60
2022-10-06T19:52:38.739Z,1263.47
2022-10-06T19:55:05.765Z,1259.15
2022-10-06T19:57:33.479Z,1259.45
2022-10-06T20:00:00.511Z,1260.73
2022-10-06T20:02:28.565Z,1260.32
2022-10-06T20:04:55.465Z,1256.80
2022-10-06T20:07:25.327Z,1258.70
2022-10-06T20:09:53.302Z,1253.75
2022-10-06T20:12:24.553Z,1259.07
2022-10-06T20:14:53.276Z,1260.63
2022-10-06T20:17:20.724Z,1258.57
2022-10-06T20:19:47.909Z,1254.82
2022-10-06T20:22:15.129Z,1256.85
2022-10-06T20:24:42.343Z,1254.25
2022-10-06T20:27:10.119Z,1255.72
2022-10-06T20:29:37.273Z,1255.65
2022-10-06T20:32:04.985Z,1254.23
2022-10-06T20:34:32.287Z,1253.07
2022-10-06T20:37:01.748Z,1259.17
2022-10-06T20:39:48.804Z,1252.90
2022-10-06T20:42:16.419Z,1253.53
2022-10-06T20:44:43.708Z,1255.47
2022-10-06T20:47:12.415Z,1256.63
2022-10-06T20:49:40.034Z,1253.88
2022-10-06T20:52:07.188Z,1255.18
2022-10-06T20:54:37.063Z,1257.95
2022-10-06T20:57:05.990Z,1257.37
2022-10-06T20:59:36.373Z,1254.25
2022-10-06T21:02:04.929Z,1257.65
2022-10-06T21:04:31.854Z,1253.78
2022-10-06T21:06:58.907Z,1256.37
2022-10-06T21:09:28.179Z,1251.13
2022-10-06T21:11:55.197Z,1254.40
2022-10-06T21:14:21.929Z,1250.88
2022-10-06T21:16:51.004Z,1248.80
2022-10-06T21:19:19.171Z,1249.43
2022-10-06T21:21:52.043Z,1256.75
2022-10-06T21:24:19.337Z,1249.90
2022-10-06T21:26:46.388Z,1251.93
2022-10-06T21:29:16.101Z,1249.13
2022-10-06T21:31:44.591Z,1248.20
2022-10-06T21:34:11.832Z,1250.63
2022-10-06T21:36:38.662Z,1249.27
2022-10-06T21:39:06.104Z,1251.45
2022-10-06T21:41:38.500Z,1250.33
2022-10-06T21:44:15.636Z,1246.60
2022-10-06T21:46:46.758Z,1250.22
2022-10-06T21:49:16.046Z,1249.13
2022-10-06T21:51:45.510Z,1249.60
2022-10-06T21:54:12.512Z,1250.10
2022-10-06T21:56:39.866Z,1253.40
2022-10-06T21:59:07.436Z,1248.30
2022-10-06T22:01:36.871Z,1254.90
2022-10-06T22:04:04.277Z,1252.72
2022-10-06T22:06:32.817Z,1256.35
2022-10-06T22:08:59.705Z,1252.63
2022-10-06T22:11:34.146Z,1259.20
2022-10-06T22:14:03.269Z,1252.00
2022-10-06T22:16:32.376Z,1258.05
2022-10-06T22:19:01.053Z,1252.07
2022-10-06T22:21:31.448Z,1250.82
2022-10-06T22:23:59.984Z,1252.22
2022-10-06T22:26:28.365Z,1251.18
2022-10-06T22:28:57.958Z,1251.00
2022-10-06T22:31:26.551Z,1254.80
2022-10-06T22:34:01.452Z,1254.67
2022-10-06T22:36:28.810Z,1253.55
2022-10-06T22:38:56.294Z,1255.53
2022-10-06T22:41:23.692Z,1257.07
2022-10-06T22:43:57.076Z,1258.22
2022-10-06T22:46:26.994Z,1256.18
2022-10-06T22:48:53.841Z,1255.68
2022-10-06T22:51:20.782Z,1255.45
2022-10-06T22:53:54.000Z,1254.85
2022-10-06T22:56:24.877Z,1251.83
2022-10-06T22:58:53.040Z,1256.22
2022-10-06T23:01:20.271Z,1248.95
2022-10-06T23:03:47.788Z,1257.30
2022-10-06T23:06:16.828Z,1253.28
2022-10-06T23:08:43.817Z,1253.18
2022-10-06T23:11:16.306Z,1252.32
2022-10-06T23:13:44.336Z,1251.07
2022-10-06T23:16:16.571Z,1254.18
2022-10-06T23:18:44.873Z,1252.78
2022-10-06T23:21:18.796Z,1252.38
2022-10-06T23:23:46.337Z,1253.35
2022-10-06T23:26:15.082Z,1251.07
2022-10-06T23:28:42.302Z,1250.13
2022-10-06T23:31:10.908Z,1251.70
2022-10-06T23:33:38.166Z,1253.00
2022-10-06T23:36:09.246Z,1255.63
2022-10-06T23:38:38.446Z,1252.47
2022-10-06T23:41:06.552Z,1251.90
2022-10-06T23:43:34.245Z,1252.20
2022-10-06T23:46:01.062Z,1252.18
2022-10-06T23:48:27.998Z,1251.53
2022-10-06T23:50:59.734Z,1255.77
2022-10-06T23:53:27.573Z,1252.63
2022-10-06T23:55:54.532Z,1251.38
2022-10-06T23:58:22.502Z,1248.43
